createdAt,value
2022-11-24T00:01:15.563Z,53.60
2022-11-24T00:03:44.215Z,53.77
2022-11-24T00:06:14.063Z,55.40
2022-11-24T00:08:43.881Z,57.70
2022-11-24T00:11:13.970Z,52.33
2022-11-24T00:13:42.553Z,44.97
2022-11-24T00:16:14.677Z,45.70
2022-11-24T00:18:44.400Z,48.17
2022-11-24T00:21:13.160Z,48.03
2022-11-24T00:23:41.408Z,49.23
2022-11-24T00:26:11.829Z,47.73
2022-11-24T00:28:40.834Z,43.30
2022-11-24T00:31:19.153Z,48.07
2022-11-24T00:33:48.176Z,43.73
2022-11-24T00:36:17.006Z,49.80
2022-11-24T00:38:47.055Z,52.70
2022-11-24T00:41:15.452Z,46.57
2022-11-24T00:43:43.566Z,55.97
2022-11-24T00:46:11.703Z,48.50
2022-11-24T00:48:41.253Z,46.87
2022-11-24T00:51:11.247Z,43.90
2022-11-24T00:53:39.506Z,42.90
2022-11-24T00:56:08.229Z,44.47
2022-11-24T00:58:37.121Z,45.83
2022-11-24T01:01:07.078Z,42.60
2022-11-24T01:03:35.800Z,46.07
2022-11-24T01:06:06.600Z,48.70
2022-11-24T01:08:35.244Z,44.80
2022-11-24T01:11:11.247Z,45.33
2022-11-24T01:13:39.716Z,40.77
2022-11-24T01:16:08.415Z,44.97
2022-11-24T01:18:36.545Z,47.43
2022-11-24T01:21:10.125Z,41.33
2022-11-24T01:23:38.475Z,43.90
2022-11-24T01:26:08.226Z,44.00
2022-11-24T01:28:38.558Z,41.63
2022-11-24T01:31:10.768Z,46.67
2022-11-24T01:33:39.160Z,47.73
2022-11-24T01:36:08.800Z,45.30
2022-11-24T01:38:36.896Z,44.67
2022-11-24T01:41:07.976Z,40.40
2022-11-24T01:43:36.325Z,48.73
2022-11-24T01:46:12.043Z,45.20
2022-11-24T01:48:44.796Z,47.90
2022-11-24T01:51:17.768Z,47.13
2022-11-24T01:53:55.215Z,47.53
2022-11-24T01:56:23.792Z,48.73
2022-11-24T01:58:53.738Z,48.67
2022-11-24T02:01:22.135Z,43.73
2022-11-24T02:03:50.907Z,45.63
2022-11-24T02:06:23.664Z,37.40
2022-11-24T02:08:56.293Z,40.83
2022-11-24T02:11:27.657Z,44.67
2022-11-24T02:13:57.206Z,43.53
2022-11-24T02:16:25.332Z,35.63
2022-11-24T02:18:54.067Z,37.97
2022-11-24T02:21:23.504Z,40.67
2022-11-24T02:23:58.490Z,45.20
2022-11-24T02:26:44.514Z,45.00
2022-11-24T02:29:14.228Z,37.40
2022-11-24T02:31:45.536Z,48.20
2022-11-24T02:34:13.529Z,45.30
2022-11-24T02:36:41.623Z,44.47
2022-11-24T02:39:12.348Z,46.37
2022-11-24T02:41:43.972Z,40.70
2022-11-24T02:44:14.059Z,41.07
2022-11-24T02:46:42.462Z,45.07
2022-11-24T02:49:10.540Z,39.63
2022-11-24T02:51:38.633Z,48.47
2022-11-24T02:54:06.746Z,42.40
2022-11-24T02:56:34.814Z,33.17
2022-11-24T02:59:04.327Z,40.77
2022-11-24T03:01:32.443Z,35.27
2022-11-24T03:04:00.521Z,39.77
2022-11-24T03:06:28.614Z,47.03
2022-11-24T03:08:56.704Z,40.70
2022-11-24T03:11:24.760Z,34.80
2022-11-24T03:13:53.107Z,37.17
2022-11-24T03:16:22.754Z,35.57
2022-11-24T03:18:52.217Z,39.80
2022-11-24T03:21:20.343Z,34.27
2022-11-24T03:23:48.495Z,34.03
2022-11-24T03:26:18.685Z,36.70
2022-11-24T03:28:46.742Z,37.57
2022-11-24T03:31:15.344Z,30.27
2022-11-24T03:33:44.795Z,30.57
2022-11-24T03:36:12.884Z,31.47
2022-11-24T03:38:41.013Z,32.00
2022-11-24T03:41:09.053Z,35.20
2022-11-24T03:43:43.197Z,38.87
2022-11-24T03:46:12.541Z,32.70
2022-11-24T03:48:41.052Z,35.37
2022-11-24T03:51:11.854Z,35.17
2022-11-24T03:53:40.119Z,32.23
2022-11-24T03:56:08.535Z,33.80
2022-11-24T03:58:36.682Z,35.20
2022-11-24T04:01:04.882Z,36.93
2022-11-24T04:03:32.998Z,38.10
2022-11-24T04:06:01.035Z,37.03
2022-11-24T04:08:30.526Z,34.17
2022-11-24T04:10:59.109Z,35.43
2022-11-24T04:13:26.976Z,37.60
2022-11-24T04:15:55.613Z,33.23
2022-11-24T04:18:23.935Z,35.20
2022-11-24T04:20:52.807Z,30.70
2022-11-24T04:23:20.945Z,31.67
2022-11-24T04:25:50.596Z,33.57
2022-11-24T04:28:18.653Z,33.10
2022-11-24T04:30:46.737Z,32.90
2022-11-24T04:33:15.441Z,30.97
2022-11-24T04:35:43.444Z,37.23
2022-11-24T04:38:11.535Z,30.97
2022-11-24T04:40:39.563Z,33.50
2022-11-24T04:43:10.110Z,32.53
2022-11-24T04:45:38.208Z,44.87
2022-11-24T04:48:06.879Z,44.30
2022-11-24T04:50:34.935Z,44.60
2022-11-24T04:53:03.027Z,40.50
2022-11-24T04:55:31.120Z,41.93
2022-11-24T04:57:59.169Z,42.23
2022-11-24T05:00:28.529Z,43.60
2022-11-24T05:02:56.732Z,39.10
2022-11-24T05:05:24.770Z,43.67
2022-11-24T05:07:52.795Z,43.30
2022-11-24T05:10:38.699Z,38.07
2022-11-24T05:13:12.971Z,42.30
2022-11-24T05:15:43.253Z,43.57
2022-11-24T05:18:15.302Z,48.30
2022-11-24T05:20:44.659Z,42.87
2022-11-24T05:23:13.425Z,42.93
2022-11-24T05:25:47.294Z,42.13
2022-11-24T05:28:16.099Z,40.13
2022-11-24T05:30:46.293Z,40.33
2022-11-24T05:33:18.991Z,42.77
2022-11-24T05:35:47.560Z,40.50
2022-11-24T05:38:15.720Z,37.03
2022-11-24T05:40:44.681Z,37.63
2022-11-24T05:43:12.927Z,41.17
2022-11-24T05:45:41.251Z,40.83
2022-11-24T05:48:14.212Z,36.73
2022-11-24T05:50:42.722Z,36.67
2022-11-24T05:53:13.087Z,37.30
2022-11-24T05:55:41.754Z,40.40
2022-11-24T05:58:11.126Z,37.37
2022-11-24T06:00:39.179Z,42.57
2022-11-24T06:03:07.233Z,39.10
2022-11-24T06:05:36.587Z,36.07
2022-11-24T06:08:04.651Z,38.60
2022-11-24T06:10:32.618Z,34.47
2022-11-24T06:13:11.428Z,36.77
2022-11-24T06:15:40.760Z,37.70
2022-11-24T06:18:08.790Z,37.43
2022-11-24T06:20:38.250Z,35.73
2022-11-24T06:23:06.245Z,34.33
2022-11-24T06:25:34.269Z,36.63
2022-11-24T06:28:04.667Z,34.83
2022-11-24T06:30:32.714Z,34.73
2022-11-24T06:33:00.804Z,37.23
2022-11-24T06:35:28.758Z,36.07
2022-11-24T06:37:58.144Z,34.10
2022-11-24T06:40:26.064Z,43.73
2022-11-24T06:42:54.045Z,38.97
2022-11-24T06:45:21.987Z,42.23
2022-11-24T06:47:50.055Z,41.00
2022-11-24T06:50:18.203Z,38.43
2022-11-24T06:52:46.160Z,38.27
2022-11-24T06:55:15.965Z,38.20
2022-11-24T06:57:43.897Z,36.47
2022-11-24T07:00:12.774Z,36.20
2022-11-24T07:02:45.736Z,34.03
2022-11-24T07:05:14.195Z,32.77
2022-11-24T07:07:42.589Z,31.40
2022-11-24T07:10:10.814Z,35.43
2022-11-24T07:12:40.107Z,31.03
2022-11-24T07:15:09.388Z,32.87
2022-11-24T07:17:38.214Z,34.23
2022-11-24T07:20:08.048Z,31.73
2022-11-24T07:22:36.495Z,28.70
2022-11-24T07:25:07.325Z,35.30
2022-11-24T07:27:35.253Z,44.97
2022-11-24T07:30:05.256Z,38.80
2022-11-24T07:32:33.186Z,36.97
2022-11-24T07:35:01.190Z,27.97
2022-11-24T07:37:31.566Z,36.30
2022-11-24T07:39:59.914Z,36.60
2022-11-24T07:42:28.471Z,34.70
2022-11-24T07:44:56.591Z,25.63
2022-11-24T07:47:25.966Z,25.90
2022-11-24T07:49:53.999Z,31.93
2022-11-24T07:52:21.950Z,30.60
2022-11-24T07:54:49.899Z,25.50
2022-11-24T07:57:17.804Z,22.13
2022-11-24T07:59:45.697Z,30.70
2022-11-24T08:02:14.395Z,32.17
2022-11-24T08:04:43.672Z,36.97
2022-11-24T08:07:11.710Z,40.43
2022-11-24T08:09:39.775Z,42.77
2022-11-24T08:12:08.165Z,36.27
2022-11-24T08:14:36.435Z,28.70
2022-11-24T08:17:04.750Z,30.60
2022-11-24T08:19:33.244Z,34.20
2022-11-24T08:22:02.521Z,32.93
2022-11-24T08:24:31.843Z,31.70
2022-11-24T08:27:00.033Z,35.13
2022-11-24T08:29:29.541Z,34.83
2022-11-24T08:31:57.882Z,26.67
2022-11-24T08:34:29.563Z,24.47
2022-11-24T08:36:57.603Z,30.47
2022-11-24T08:39:26.996Z,27.57
2022-11-24T08:41:54.892Z,33.07
2022-11-24T08:44:22.941Z,32.80
2022-11-24T08:46:51.087Z,32.50
2022-11-24T08:49:19.068Z,32.30
2022-11-24T08:51:48.558Z,35.27
2022-11-24T08:54:18.720Z,33.87
2022-11-24T08:56:50.609Z,40.00
2022-11-24T08:59:18.676Z,33.50
2022-11-24T09:01:46.801Z,38.13
2022-11-24T09:04:14.903Z,33.83
2022-11-24T09:06:42.891Z,38.47
2022-11-24T09:09:11.059Z,41.60
2022-11-24T09:11:39.635Z,38.10
2022-11-24T09:14:08.921Z,38.67
2022-11-24T09:16:37.875Z,41.90
2022-11-24T09:19:08.015Z,36.93
2022-11-24T09:21:39.023Z,38.37
2022-11-24T09:24:08.455Z,48.73
2022-11-24T09:26:41.887Z,76.13
2022-11-24T09:29:15.654Z,50.60
2022-11-24T09:31:43.773Z,43.83
2022-11-24T09:34:15.465Z,36.97
2022-11-24T09:36:43.508Z,38.10
2022-11-24T09:39:11.839Z,40.67
2022-11-24T09:41:48.610Z,35.07
2022-11-24T09:44:38.936Z,35.77
2022-11-24T09:47:15.714Z,48.60
2022-11-24T09:49:51.521Z,38.77
2022-11-24T09:52:25.789Z,38.67
2022-11-24T09:55:00.256Z,34.17
2022-11-24T09:57:37.492Z,36.07
2022-11-24T10:00:13.925Z,35.83
2022-11-24T10:02:41.958Z,38.13
2022-11-24T10:05:13.102Z,34.53
2022-11-24T10:07:46.320Z,36.60
2022-11-24T10:10:24.304Z,31.80
2022-11-24T10:13:04.038Z,31.73
2022-11-24T10:15:45.783Z,32.43
2022-11-24T10:18:44.305Z,39.43
2022-11-24T10:21:26.835Z,31.30
2022-11-24T10:24:10.017Z,32.47
2022-11-24T10:26:39.691Z,32.00
2022-11-24T10:29:21.546Z,32.90
2022-11-24T10:31:55.479Z,30.13
2022-11-24T10:34:29.621Z,34.67
2022-11-24T10:37:02.995Z,31.90
2022-11-24T10:39:36.508Z,37.83
2022-11-24T10:42:12.798Z,30.17
2022-11-24T10:44:42.104Z,35.67
2022-11-24T10:47:22.708Z,28.37
2022-11-24T10:49:56.985Z,29.97
2022-11-24T10:52:26.389Z,35.43
2022-11-24T10:54:56.734Z,35.67
2022-11-24T10:57:33.392Z,39.63
2022-11-24T11:00:02.619Z,38.93
2022-11-24T11:02:38.025Z,42.50
2022-11-24T11:05:37.876Z,34.30
2022-11-24T11:08:20.881Z,32.60
2022-11-24T11:10:50.651Z,38.47
2022-11-24T11:13:22.888Z,33.87
2022-11-24T11:15:51.179Z,40.67
2022-11-24T11:18:21.301Z,42.73
2022-11-24T11:20:55.089Z,34.53
2022-11-24T11:23:27.447Z,40.03
2022-11-24T11:26:20.445Z,47.83
2022-11-24T11:31:15.616Z,40.73
2022-11-24T11:34:50.887Z,41.20
2022-11-24T11:37:20.825Z,36.10
2022-11-24T11:39:50.487Z,34.67
2022-11-24T11:42:53.699Z,30.03
2022-11-24T11:45:16.043Z,34.33
2022-11-24T11:47:48.018Z,38.50
2022-11-24T11:50:19.153Z,31.97
2022-11-24T11:53:08.144Z,33.30
2022-11-24T11:55:56.487Z,30.53
2022-11-24T11:58:50.870Z,38.57
2022-11-24T12:01:34.908Z,34.87
2022-11-24T12:04:16.014Z,35.23
2022-11-24T12:07:13.395Z,40.73
2022-11-24T12:09:53.116Z,38.37
2022-11-24T12:12:52.243Z,38.87
2022-11-24T12:15:29.127Z,46.80
2022-11-24T12:18:05.713Z,41.27
2022-11-24T12:20:47.206Z,37.43
2022-11-24T12:23:26.673Z,34.90
2022-11-24T12:26:01.045Z,47.77
2022-11-24T12:28:46.074Z,68.03
2022-11-24T12:31:23.851Z,38.60
2022-11-24T12:34:10.099Z,45.33
2022-11-24T12:36:53.532Z,36.40
2022-11-24T12:39:29.131Z,31.23
2022-11-24T12:42:10.112Z,35.43
2022-11-24T12:44:56.022Z,41.37
2022-11-24T12:47:30.238Z,36.97
2022-11-24T12:50:09.284Z,36.37
2022-11-24T12:52:41.409Z,33.67
2022-11-24T12:55:18.542Z,35.30
2022-11-24T12:57:54.846Z,35.67
2022-11-24T13:00:25.095Z,36.73
2022-11-24T13:03:14.690Z,44.77
2022-11-24T13:05:51.209Z,32.43
2022-11-24T13:08:19.811Z,35.63
2022-11-24T13:10:57.823Z,44.37
2022-11-24T13:13:31.397Z,56.00
2022-11-24T13:16:35.163Z,46.57
2022-11-24T13:19:03.444Z,80.93
2022-11-24T13:21:33.925Z,77.40
2022-11-24T13:24:04.347Z,46.17
2022-11-24T13:26:47.273Z,42.40
2022-11-24T13:29:31.410Z,42.23
2022-11-24T13:32:52.730Z,35.80
2022-11-24T13:35:20.709Z,32.90
2022-11-24T13:37:52.768Z,38.37
2022-11-24T13:40:54.281Z,43.33
2022-11-24T13:43:30.972Z,48.63
2022-11-24T13:45:58.974Z,101.00
2022-11-24T13:49:01.705Z,102.73
2022-11-24T13:51:29.802Z,86.73
2022-11-24T13:54:00.851Z,66.23
2022-11-24T13:56:32.040Z,125.70
2022-11-24T13:59:16.146Z,80.63
2022-11-24T14:01:46.820Z,62.77
2022-11-24T14:04:36.260Z,51.23
2022-11-24T14:07:08.731Z,49.93
2022-11-24T14:09:43.059Z,49.77
2022-11-24T14:12:15.980Z,52.90
2022-11-24T14:14:46.790Z,47.80
2022-11-24T14:17:18.904Z,66.53
2022-11-24T14:19:48.636Z,66.20
2022-11-24T14:22:18.918Z,46.60
2022-11-24T14:24:52.135Z,53.93
2022-11-24T14:27:30.332Z,45.67
2022-11-24T14:30:02.101Z,93.83
2022-11-24T14:32:30.376Z,84.17
2022-11-24T14:34:58.626Z,58.70
2022-11-24T14:37:26.671Z,87.40
2022-11-24T14:39:54.610Z,95.17
2022-11-24T14:42:24.846Z,81.47
2022-11-24T14:44:56.328Z,86.20
2022-11-24T14:47:31.759Z,67.60
2022-11-24T14:50:09.460Z,54.57
2022-11-24T14:52:37.555Z,57.90
2022-11-24T14:55:21.869Z,53.03
2022-11-24T14:57:50.354Z,52.77
2022-11-24T15:00:21.049Z,54.47
2022-11-24T15:02:51.995Z,54.10
2022-11-24T15:05:21.692Z,49.40
2022-11-24T15:07:52.712Z,52.30
2022-11-24T15:10:33.627Z,58.07
2022-11-24T15:13:05.197Z,63.43
2022-11-24T15:15:36.537Z,62.20
2022-11-24T15:18:07.408Z,64.40
2022-11-24T15:20:41.762Z,54.33
2022-11-24T15:23:23.363Z,52.33
2022-11-24T15:25:54.271Z,51.80
2022-11-24T15:28:25.942Z,56.37
2022-11-24T15:30:55.316Z,50.63
2022-11-24T15:33:24.788Z,56.63
2022-11-24T15:35:52.871Z,59.13
2022-11-24T15:38:21.206Z,90.97
2022-11-24T15:40:51.430Z,87.87
2022-11-24T15:43:28.523Z,77.10
2022-11-24T15:45:56.437Z,66.80
2022-11-24T15:48:26.101Z,70.80
2022-11-24T15:50:55.105Z,74.77
2022-11-24T15:53:25.688Z,69.23
2022-11-24T15:55:54.157Z,63.60
2022-11-24T15:58:22.108Z,64.77
2022-11-24T16:00:50.900Z,47.00
2022-11-24T16:03:45.883Z,56.70
2022-11-24T16:06:15.023Z,62.57
2022-11-24T16:08:44.818Z,67.37
2022-11-24T16:11:12.983Z,70.43
2022-11-24T16:13:41.074Z,65.60
2022-11-24T16:16:09.342Z,67.63
2022-11-24T16:18:39.640Z,68.07
2022-11-24T16:21:09.773Z,70.33
2022-11-24T16:23:37.851Z,67.13
2022-11-24T16:26:06.279Z,70.27
2022-11-24T16:28:35.398Z,73.70
2022-11-24T16:31:03.362Z,75.40
2022-11-24T16:33:31.602Z,69.20
2022-11-24T16:35:59.558Z,73.00
2022-11-24T16:38:28.906Z,71.10
2022-11-24T16:40:57.139Z,79.20
2022-11-24T16:43:25.466Z,79.27
2022-11-24T16:46:04.056Z,84.60
2022-11-24T16:48:36.978Z,92.30
2022-11-24T16:51:06.689Z,85.57
2022-11-24T16:53:36.033Z,77.30
2022-11-24T16:56:04.151Z,85.10
2022-11-24T16:58:32.217Z,72.73
2022-11-24T17:01:04.173Z,94.40
2022-11-24T17:03:34.587Z,91.23
2022-11-24T17:06:02.602Z,86.10
2022-11-24T17:08:32.634Z,81.77
2022-11-24T17:11:06.668Z,88.73
2022-11-24T17:13:34.949Z,88.23
2022-11-24T17:16:05.537Z,89.03
2022-11-24T17:18:34.810Z,80.47
2022-11-24T17:21:09.104Z,81.23
2022-11-24T17:23:37.819Z,83.97
2022-11-24T17:26:09.798Z,97.77
2022-11-24T17:28:38.262Z,80.80
2022-11-24T17:31:09.643Z,78.83
2022-11-24T17:33:41.654Z,89.73
2022-11-24T17:36:10.525Z,85.47
2022-11-24T17:38:38.532Z,84.57
2022-11-24T17:41:08.505Z,97.37
2022-11-24T17:43:36.573Z,96.30
2022-11-24T17:46:05.890Z,91.67
2022-11-24T17:48:34.470Z,83.63
2022-11-24T17:51:04.329Z,85.20
2022-11-24T17:53:32.947Z,81.60
2022-11-24T17:56:01.476Z,88.30
2022-11-24T17:58:31.414Z,89.17
2022-11-24T18:00:59.727Z,93.07
2022-11-24T18:03:32.277Z,85.77
2022-11-24T18:06:06.258Z,81.47
2022-11-24T18:08:34.891Z,85.77
2022-11-24T18:11:07.059Z,86.30
2022-11-24T18:16:27.906Z,84.47
2022-11-24T18:19:07.726Z,98.40
2022-11-24T18:21:37.192Z,96.50
2022-11-24T18:24:05.442Z,102.83
2022-11-24T18:26:33.398Z,100.00
2022-11-24T18:29:02.971Z,91.50
2022-11-24T18:31:32.326Z,90.70
2022-11-24T18:34:00.898Z,104.73
2022-11-24T18:36:30.828Z,111.33
2022-11-24T18:39:00.942Z,99.07
2022-11-24T18:41:28.872Z,92.70
2022-11-24T18:43:56.959Z,82.30
2022-11-24T18:46:26.357Z,78.60
2022-11-24T18:48:54.442Z,80.37
2022-11-24T18:51:23.440Z,98.20
2022-11-24T18:53:54.321Z,84.07
2022-11-24T18:56:22.331Z,80.07
2022-11-24T18:58:53.689Z,85.97
2022-11-24T19:01:23.441Z,83.03
2022-11-24T19:03:54.496Z,92.33
2022-11-24T19:06:24.037Z,86.13
2022-11-24T19:08:54.744Z,103.23
2022-11-24T19:11:24.438Z,102.27
2022-11-24T19:13:52.544Z,115.13
2022-11-24T19:16:22.188Z,106.30
2022-11-24T19:18:54.365Z,106.27
2022-11-24T19:21:23.221Z,93.97
2022-11-24T19:23:51.264Z,115.87
2022-11-24T19:26:19.729Z,109.70
2022-11-24T19:28:47.720Z,106.30
2022-11-24T19:31:18.035Z,101.60
2022-11-24T19:33:46.528Z,99.27
2022-11-24T19:36:17.444Z,108.17
2022-11-24T19:38:50.960Z,107.20
2022-11-24T19:41:20.671Z,97.83
2022-11-24T19:43:49.151Z,115.97
2022-11-24T19:46:18.852Z,106.70
2022-11-24T19:48:50.117Z,111.97
2022-11-24T19:51:21.556Z,110.87
2022-11-24T19:53:49.599Z,121.97
2022-11-24T19:56:19.408Z,118.57
2022-11-24T19:58:48.226Z,114.27
2022-11-24T20:01:17.768Z,108.70
2022-11-24T20:03:47.726Z,105.33
2022-11-24T20:06:16.657Z,105.90
2022-11-24T20:08:46.110Z,97.50
2022-11-24T20:11:15.778Z,104.27
2022-11-24T20:13:45.275Z,108.20
2022-11-24T20:16:14.463Z,114.07
2022-11-24T20:18:44.548Z,109.43
2022-11-24T20:21:17.899Z,112.40
2022-11-24T20:23:52.670Z,103.20
2022-11-24T20:26:23.010Z,118.83
2022-11-24T20:28:51.651Z,109.23
2022-11-24T20:31:22.735Z,106.53
2022-11-24T20:33:51.612Z,95.97
2022-11-24T20:36:21.284Z,88.73
2022-11-24T20:38:51.865Z,101.40
2022-11-24T20:41:22.720Z,100.70
2022-11-24T20:43:51.710Z,100.40
2022-11-24T20:46:21.702Z,90.07
2022-11-24T20:48:50.347Z,88.20
2022-11-24T20:51:21.373Z,94.83
2022-11-24T20:53:51.213Z,94.60
2022-11-24T20:56:20.977Z,99.13
2022-11-24T20:58:49.396Z,91.00
2022-11-24T21:01:19.690Z,100.00
2022-11-24T21:03:52.433Z,90.77
2022-11-24T21:06:20.433Z,92.00
2022-11-24T21:08:50.544Z,108.90
2022-11-24T21:11:19.380Z,104.33
2022-11-24T21:13:48.663Z,88.77
2022-11-24T21:16:18.418Z,99.03
2022-11-24T21:18:48.011Z,90.37
2022-11-24T21:21:15.998Z,103.77
2022-11-24T21:23:45.090Z,95.57
2022-11-24T21:26:17.162Z,98.17
2022-11-24T21:28:46.802Z,100.97
2022-11-24T21:31:16.950Z,118.97
2022-11-24T21:33:46.258Z,110.63
2022-11-24T21:36:15.466Z,124.60
2022-11-24T21:38:43.732Z,110.70
2022-11-24T21:41:14.163Z,122.90
2022-11-24T21:43:42.108Z,137.73
2022-11-24T21:46:11.971Z,103.53
2022-11-24T21:48:41.741Z,110.00
2022-11-24T21:51:13.154Z,113.00
2022-11-24T21:53:41.291Z,101.27
2022-11-24T21:56:12.825Z,121.53
2022-11-24T21:58:47.251Z,110.77
2022-11-24T22:01:16.369Z,120.57
2022-11-24T22:03:44.638Z,113.07
2022-11-24T22:06:13.269Z,117.43
2022-11-24T22:08:41.274Z,109.00
2022-11-24T22:11:12.741Z,115.47
2022-11-24T22:13:40.904Z,118.93
2022-11-24T22:16:12.444Z,126.63
2022-11-24T22:18:42.211Z,132.07
2022-11-24T22:21:13.253Z,117.70
2022-11-24T22:23:41.292Z,121.20
2022-11-24T22:26:12.722Z,129.00
2022-11-24T22:28:41.100Z,122.93
2022-11-24T22:31:12.974Z,132.43
2022-11-24T22:33:41.381Z,114.97
2022-11-24T22:36:10.896Z,118.87
2022-11-24T22:38:39.246Z,131.13
2022-11-24T22:41:09.348Z,129.60
2022-11-24T22:43:38.622Z,116.07
2022-11-24T22:46:08.440Z,124.80
2022-11-24T22:48:38.551Z,121.60
2022-11-24T22:51:08.031Z,113.90
2022-11-24T22:53:36.353Z,104.57
2022-11-24T22:56:05.307Z,116.63
2022-11-24T22:58:36.879Z,120.73
2022-11-24T23:01:06.310Z,111.27
2022-11-24T23:03:34.932Z,118.03
2022-11-24T23:06:07.029Z,112.83
2022-11-24T23:08:36.072Z,105.53
2022-11-24T23:11:06.857Z,118.10
2022-11-24T23:13:35.428Z,115.17
2022-11-24T23:16:04.933Z,111.77
2022-11-24T23:18:33.273Z,113.03
2022-11-24T23:21:07.719Z,114.00
2022-11-24T23:23:36.162Z,114.00
2022-11-24T23:26:05.681Z,120.87
2022-11-24T23:28:33.665Z,115.10
2022-11-24T23:31:02.668Z,112.23
2022-11-24T23:33:30.854Z,107.77
2022-11-24T23:36:02.175Z,99.90
2022-11-24T23:38:33.345Z,118.80
2022-11-24T23:41:04.409Z,117.60
2022-11-24T23:43:32.895Z,114.70
2022-11-24T23:46:04.878Z,104.17
2022-11-24T23:48:32.984Z,114.47
2022-11-24T23:51:05.299Z,120.57
2022-11-24T23:53:35.504Z,108.07
2022-11-24T23:56:04.557Z,129.70
2022-11-24T23:58:32.921Z,109.00
